Time;durP1;ratioP1;P1;durP2;ratioP2;P2;SDS_P1;SDS_P2;PMS_P1;PMS_P2;Temp;Humidity;BMP_temperature;BMP_pressure;BME280_temperature;BME280_humidity;BME280_pressure;Samples;Min_cycle;Max_cycle;Signal;HPM_P1;HPM_P2
2022/08/08 00:00:42;;;;;;;8.32;1.98;;;25.80;37.70;;;;;;7371462;19;20019;-85
2022/08/08 00:03:19;;;;;;;1.85;1.42;;;25.80;37.80;;;;;;7378668;19;20022;-84
2022/08/08 00:05:54;;;;;;;4.43;1.77;;;25.80;38.00;;;;;;7376134;19;20588;-84
2022/08/08 00:08:30;;;;;;;2.33;1.63;;;25.80;38.10;;;;;;7374810;19;20567;-84
2022/08/08 00:11:08;;;;;;;3.72;1.70;;;25.70;38.20;;;;;;7374134;19;20007;-85
2022/08/08 00:13:44;;;;;;;4.18;1.80;;;25.60;38.40;;;;;;7369671;19;20494;-84
2022/08/08 00:16:17;;;;;;;4.00;1.70;;;25.60;38.60;;;;;;7391386;19;20020;-84
2022/08/08 00:18:56;;;;;;;4.03;2.05;;;25.50;38.80;;;;;;7374917;19;20082;-85
2022/08/08 00:21:29;;;;;;;5.20;2.10;;;25.50;38.90;;;;;;7375454;19;20014;-84
2022/08/08 00:24:04;;;;;;;4.75;2.08;;;25.50;39.00;;;;;;7373403;19;20390;-84
2022/08/08 00:26:46;;;;;;;3.78;1.90;;;25.50;39.10;;;;;;7371566;19;20014;-84
2022/08/08 00:29:23;;;;;;;4.93;1.80;;;25.40;39.10;;;;;;7374274;19;20399;-84
2022/08/08 00:31:57;;;;;;;2.45;1.85;;;25.50;39.30;;;;;;7379542;19;20038;-85
2022/08/08 00:37:39;;;;;;;6.50;2.10;;;25.50;39.30;;;;;;7276952;19;2004457;-84
2022/08/08 00:40:22;;;;;;;;;;;25.50;39.40;;;;;;7411637;19;20022;-84
2022/08/08 00:43:28;;;;;;;5.45;2.00;;;25.40;39.60;;;;;;7382765;19;20359;-86
2022/08/08 00:46:12;;;;;;;6.03;2.17;;;25.30;39.80;;;;;;7378923;19;20510;-85
2022/08/08 00:49:12;;;;;;;2.95;1.98;;;25.10;40.30;;;;;;7375544;19;20082;-84
2022/08/08 00:52:05;;;;;;;5.68;2.50;;;25.10;40.20;;;;;;7373434;19;20051;-84
2022/08/08 00:55:09;;;;;;;4.63;2.50;;;24.90;40.50;;;;;;7373407;19;20044;-84
2022/08/08 00:58:13;;;;;;;5.65;2.17;;;25.00;40.50;;;;;;7370966;19;20458;-84
2022/08/08 01:00:51;;;;;;;6.13;2.03;;;25.00;40.60;;;;;;7372427;19;20490;-84
2022/08/08 01:03:46;;;;;;;5.68;2.25;;;25.00;40.60;;;;;;7371317;19;20082;-84
2022/08/08 01:06:45;;;;;;;5.53;1.95;;;25.00;40.70;;;;;;7370084;19;20033;-84
2022/08/08 01:09:40;;;;;;;9.68;2.38;;;25.10;40.70;;;;;;7368964;19;20022;-85
2022/08/08 01:12:35;;;;;;;8.50;2.28;;;25.00;40.70;;;;;;7370514;19;20022;-85
2022/08/08 01:16:04;;;;;;;4.03;2.03;;;24.90;40.80;;;;;;7369407;19;20034;-84
2022/08/08 01:19:03;;;;;;;6.18;2.28;;;25.00;40.90;;;;;;7370155;19;20078;-85
2022/08/08 01:22:10;;;;;;;4.78;2.00;;;24.90;40.90;;;;;;7368007;19;20018;-84
2022/08/08 01:25:09;;;;;;;6.00;2.13;;;24.90;41.20;;;;;;7368007;19;20417;-84
2022/08/08 01:28:05;;;;;;;4.10;1.90;;;24.90;41.20;;;;;;7366034;19;20021;-84
2022/08/08 01:31:18;;;;;;;9.25;2.10;;;24.90;41.20;;;;;;7369399;19;20025;-84
2022/08/08 01:34:20;;;;;;;7.22;2.15;;;24.90;41.20;;;;;;7367265;19;20015;-85
2022/08/08 01:37:18;;;;;;;8.38;2.08;;;24.90;41.30;;;;;;7366594;19;20018;-84
2022/08/08 01:40:07;;;;;;;4.65;2.20;;;25.00;41.20;;;;;;7368382;19;20011;-84
2022/08/08 01:42:41;;;;;;;7.45;2.20;;;24.90;41.10;;;;;;7369154;19;20014;-83
2022/08/08 01:45:30;;;;;;;4.22;2.20;;;25.00;41.10;;;;;;7366847;19;20011;-84
2022/08/08 01:48:08;;;;;;;3.72;2.10;;;25.00;41.10;;;;;;7369169;19;20090;-84
2022/08/08 01:51:01;;;;;;;4.00;2.20;;;24.90;41.10;;;;;;7368992;19;20030;-85
2022/08/08 01:53:48;;;;;;;7.95;1.95;;;24.80;41.20;;;;;;7368418;19;20443;-84
2022/08/08 01:56:28;;;;;;;2.78;1.80;;;24.80;41.40;;;;;;7379527;19;20014;-85
2022/08/08 01:59:19;;;;;;;4.95;2.10;;;24.80;41.50;;;;;;7369805;19;20022;-85
2022/08/08 02:02:05;;;;;;;6.90;2.40;;;24.80;41.40;;;;;;7373046;19;20027;-84
2022/08/08 02:04:40;;;;;;;5.22;2.13;;;24.80;41.40;;;;;;7374739;19;20022;-84
2022/08/08 02:07:18;;;;;;;3.97;2.20;;;24.70;41.50;;;;;;7392735;19;20486;-85
2022/08/08 02:10:04;;;;;;;9.23;2.72;;;24.70;41.70;;;;;;7368210;19;20026;-85
2022/08/08 02:12:53;;;;;;;4.68;2.38;;;24.70;41.80;;;;;;7369853;19;20014;-85
2022/08/08 02:15:34;;;;;;;3.78;2.03;;;24.70;41.90;;;;;;7367863;19;20093;-85
2022/08/08 02:18:11;;;;;;;8.45;2.47;;;24.70;42.20;;;;;;7370690;19;20021;-85
2022/08/08 02:22:30;;;;;;;3.95;2.30;;;24.60;41.90;;;;;;7371533;19;20014;-85
2022/08/08 02:23:47;;;;;;;5.07;1.95;;;24.60;42.00;;;;;;7371040;19;20032;-85
2022/08/08 02:26:19;;;;;;;2.78;1.83;;;24.60;42.20;;;;;;7370948;19;20029;-85
2022/08/08 02:29:17;;;;;;;5.10;2.15;;;24.40;42.20;;;;;;7371165;19;20019;-85
2022/08/08 02:32:12;;;;;;;7.55;2.60;;;24.40;42.30;;;;;;7370431;19;20018;-84
2022/08/08 02:35:20;;;;;;;6.63;2.75;;;24.40;42.50;;;;;;7372039;19;20024;-84
2022/08/08 02:38:27;;;;;;;7.38;2.63;;;24.40;42.70;;;;;;7368992;19;20055;-85
2022/08/08 02:41:18;;;;;;;4.68;2.58;;;24.40;42.60;;;;;;7368989;19;20110;-85
2022/08/08 02:44:24;;;;;;;10.98;2.72;;;24.40;42.80;;;;;;7369418;19;20025;-85
2022/08/08 02:47:16;;;;;;;5.88;2.70;;;24.30;43.00;;;;;;7367180;19;20014;-85
2022/08/08 02:50:12;;;;;;;4.68;2.25;;;24.30;43.20;;;;;;7366342;19;20010;-85
2022/08/08 02:52:53;;;;;;;4.47;2.28;;;24.20;43.30;;;;;;7366330;19;20093;-84
2022/08/08 02:55:46;;;;;;;4.53;2.47;;;24.30;43.40;;;;;;7389114;19;20030;-86
2022/08/08 02:58:44;;;;;;;7.90;2.55;;;24.20;43.40;;;;;;7370842;19;20023;-84
2022/08/08 03:01:47;;;;;;;4.93;2.25;;;24.20;43.50;;;;;;7372160;19;20018;-84
2022/08/08 03:04:55;;;;;;;4.45;2.35;;;24.20;43.60;;;;;;7373440;19;20118;-84
2022/08/08 03:08:05;;;;;;;7.47;3.00;;;24.20;43.60;;;;;;7271660;19;2004679;-84
2022/08/08 03:11:06;;;;;;;7.03;2.92;;;24.20;43.80;;;;;;7376091;19;20038;-82
2022/08/08 03:14:03;;;;;;;7.28;2.85;;;24.10;43.80;;;;;;7379219;19;20953;-83
2022/08/08 03:16:44;;;;;;;6.82;2.38;;;24.10;43.80;;;;;;7381840;19;20444;-84
2022/08/08 03:20:06;;;;;;;5.63;2.80;;;24.10;43.90;;;;;;7392100;19;20082;-84
2022/08/08 03:22:34;;;;;;;5.97;2.75;;;24.10;43.80;;;;;;7270820;19;2004692;-84
2022/08/08 03:25:08;;;;;;;5.03;2.50;;;24.00;43.80;;;;;;7393402;19;20064;-84
2022/08/08 03:27:40;;;;;;;4.32;2.67;;;23.90;43.90;;;;;;7373736;19;20043;-84
2022/08/08 03:30:11;;;;;;;7.50;2.63;;;23.90;44.00;;;;;;7372597;19;20014;-84
2022/08/08 03:35:21;;;;;;;5.85;2.40;;;24.00;44.20;;;;;;7373076;19;20042;-84
2022/08/08 03:37:50;;;;;;;11.43;2.70;;;23.90;44.20;;;;;;7373372;19;20007;-84
2022/08/08 03:40:23;;;;;;;9.10;2.78;;;23.90;44.30;;;;;;7393659;19;20514;-84
2022/08/08 03:42:52;;;;;;;6.63;2.60;;;23.90;44.30;;;;;;7373535;19;20530;-84
2022/08/08 03:45:22;;;;;;;5.72;2.40;;;23.70;45.00;;;;;;7371616;19;20121;-84
2022/08/08 03:47:58;;;;;;;4.68;2.53;;;23.70;44.60;;;;;;7373866;19;20558;-84
2022/08/08 03:50:31;;;;;;;4.50;2.63;;;23.50;44.80;;;;;;7371698;19;20401;-84
2022/08/08 03:53:04;;;;;;;7.00;3.03;;;23.50;45.00;;;;;;7373440;19;20074;-84
2022/08/08 03:55:40;;;;;;;3.90;2.50;;;23.40;45.10;;;;;;7370620;19;20029;-84
2022/08/08 03:58:09;;;;;;;5.43;2.92;;;23.50;45.30;;;;;;7393207;19;20014;-84
2022/08/08 04:00:38;;;;;;;10.95;3.03;;;23.50;45.20;;;;;;7373949;19;20118;-84
2022/08/08 04:03:09;;;;;;;5.13;2.88;;;23.50;45.20;;;;;;7374965;19;20026;-83
2022/08/08 04:05:39;;;;;;;11.35;3.13;;;23.50;45.10;;;;;;7376017;19;20059;-83
2022/08/08 04:08:09;;;;;;;9.20;3.15;;;23.40;45.00;;;;;;7374634;19;20014;-83
2022/08/08 04:10:41;;;;;;;6.15;2.95;;;23.40;45.30;;;;;;7370988;19;20010;-83
2022/08/08 04:13:10;;;;;;;7.65;2.80;;;23.40;45.20;;;;;;7392532;19;20081;-82
2022/08/08 04:15:42;;;;;;;7.40;2.88;;;23.40;45.20;;;;;;7371106;19;20152;-83
2022/08/08 04:18:10;;;;;;;5.53;2.58;;;23.40;45.20;;;;;;7374048;19;20104;-83
2022/08/08 04:20:39;;;;;;;4.18;3.00;;;23.40;45.30;;;;;;7374332;19;20517;-83
2022/08/08 04:23:08;;;;;;;6.70;2.92;;;23.20;45.40;;;;;;7374423;19;20025;-83
2022/08/08 04:25:39;;;;;;;6.65;2.80;;;23.10;45.70;;;;;;7375377;19;20019;-82
2022/08/08 04:28:08;;;;;;;;;;;23.10;45.90;;;;;;7392395;19;20014;-83
2022/08/08 04:30:37;;;;;;;12.18;2.80;;;23.20;45.90;;;;;;7371400;19;20524;-83
2022/08/08 04:33:06;;;;;;;8.50;3.38;;;23.20;45.90;;;;;;7373258;19;20034;-83
2022/08/08 04:35:35;;;;;;;6.13;2.97;;;23.10;45.90;;;;;;7375772;19;20845;-83
2022/08/08 04:38:04;;;;;;;12.20;3.25;;;23.10;46.00;;;;;;7374336;19;20085;-82
2022/08/08 04:40:32;;;;;;;8.70;3.13;;;23.00;46.10;;;;;;7373664;19;20387;-84
2022/08/08 04:43:05;;;;;;;6.95;3.60;;;22.90;46.40;;;;;;7393396;19;20015;-84
2022/08/08 04:45:34;;;;;;;8.27;3.60;;;22.80;46.60;;;;;;7372347;19;20090;-84
2022/08/08 04:48:04;;;;;;;9.73;3.45;;;22.80;46.70;;;;;;7373458;19;20083;-84
2022/08/08 04:50:32;;;;;;;12.98;3.90;;;22.70;47.00;;;;;;7374586;19;20015;-83
2022/08/08 04:53:01;;;;;;;8.13;3.33;;;22.60;47.00;;;;;;7376187;19;20738;-83
2022/08/08 04:55:30;;;;;;;7.80;3.60;;;22.60;47.00;;;;;;7372278;19;20030;-84
2022/08/08 04:57:59;;;;;;;7.28;3.80;;;22.50;47.20;;;;;;7394910;19;20207;-84
2022/08/08 05:00:30;;;;;;;8.30;3.92;;;22.50;47.30;;;;;;7373483;19;20143;-83
2022/08/08 05:02:58;;;;;;;;;;;22.60;47.40;;;;;;7373372;19;20038;-84
2022/08/08 05:05:27;;;;;;;14.75;4.25;;;22.60;47.50;;;;;;7370680;19;19911;-83
2022/08/08 05:07:56;;;;;;;10.93;3.42;;;22.50;47.50;;;;;;7375147;19;20102;-84
2022/08/08 05:10:28;;;;;;;7.47;4.40;;;22.40;47.50;;;;;;7397104;19;20589;-84
2022/08/08 05:12:57;;;;;;;7.90;3.47;;;22.50;47.50;;;;;;7372745;19;20038;-82
2022/08/08 05:15:25;;;;;;;7.88;3.70;;;22.60;47.40;;;;;;7372048;19;20035;-84
2022/08/08 05:17:57;;;;;;;11.77;4.50;;;22.60;47.50;;;;;;7372477;19;20089;-83
2022/08/08 05:20:25;;;;;;;7.90;3.83;;;22.50;47.50;;;;;;7373249;19;20019;-83
2022/08/08 05:22:54;;;;;;;9.60;3.95;;;22.60;47.40;;;;;;7374266;19;20022;-83
2022/08/08 05:25:24;;;;;;;11.63;3.92;;;22.50;47.50;;;;;;7398297;19;20015;-83
2022/08/08 05:27:53;;;;;;;23.05;3.90;;;22.40;47.60;;;;;;7377401;19;20011;-84
2022/08/08 05:30:22;;;;;;;8.27;3.72;;;22.50;47.70;;;;;;7376595;19;20679;-82
2022/08/08 05:32:52;;;;;;;10.82;3.92;;;22.50;47.50;;;;;;7379670;19;20010;-84
2022/08/08 05:35:25;;;;;;;7.07;3.53;;;22.50;47.80;;;;;;7382742;19;20019;-83
2022/08/08 05:37:58;;;;;;;7.30;3.88;;;22.40;47.90;;;;;;7390227;19;20016;-87
2022/08/08 05:40:29;;;;;;;10.00;3.85;;;22.30;48.10;;;;;;7403944;19;20023;-84
2022/08/08 05:43:04;;;;;;;16.65;4.35;;;22.30;48.30;;;;;;7373303;19;20039;-84
2022/08/08 05:45:36;;;;;;;9.23;4.00;;;22.40;48.10;;;;;;7374404;19;20014;-85
2022/08/08 05:48:06;;;;;;;7.75;4.72;;;22.30;48.30;;;;;;7378111;19;20019;-85
2022/08/08 05:50:38;;;;;;;10.85;4.22;;;22.30;48.10;;;;;;7387963;19;20042;-87
2022/08/08 05:53:07;;;;;;;8.35;3.97;;;22.40;48.10;;;;;;7389236;19;20024;-85
2022/08/08 05:55:37;;;;;;;6.93;3.83;;;22.50;47.90;;;;;;7379263;19;20373;-84
2022/08/08 05:58:07;;;;;;;8.25;3.92;;;22.60;47.80;;;;;;7401101;19;20648;-86
2022/08/08 06:00:38;;;;;;;9.30;4.20;;;22.70;47.60;;;;;;7384582;19;20034;-87
2022/08/08 06:03:15;;;;;;;11.40;4.57;;;22.80;47.40;;;;;;7378481;19;20267;-86
2022/08/08 06:05:51;;;;;;;6.10;3.67;;;22.80;47.30;;;;;;7379196;19;20067;-86
2022/08/08 06:08:26;;;;;;;7.45;3.67;;;22.90;47.20;;;;;;7378850;19;20018;-86
2022/08/08 06:10:57;;;;;;;9.40;4.43;;;22.90;47.20;;;;;;7376433;19;20014;-84
2022/08/08 06:13:27;;;;;;;7.37;4.37;;;22.80;47.20;;;;;;7398451;19;20350;-84
2022/08/08 06:15:57;;;;;;;12.13;4.55;;;22.80;47.20;;;;;;7378949;19;20242;-85
2022/08/08 06:18:28;;;;;;;8.35;4.30;;;22.80;47.20;;;;;;7376425;19;20089;-83
2022/08/08 06:21:00;;;;;;;;;;;22.90;47.30;;;;;;7379905;19;20019;-85
2022/08/08 06:23:29;;;;;;;;;;;22.90;47.20;;;;;;7384186;19;19942;-85
2022/08/08 06:26:04;;;;;;;14.93;4.28;;;22.90;47.20;;;;;;7377760;19;19922;-85
2022/08/08 06:28:34;;;;;;;8.13;4.45;;;22.90;47.20;;;;;;7375291;19;20018;-82
2022/08/08 06:31:06;;;;;;;12.00;3.83;;;22.90;47.10;;;;;;7396768;19;20043;-82
2022/08/08 06:33:42;;;;;;;13.25;3.97;;;23.00;47.10;;;;;;7372049;19;20382;-82
2022/08/08 06:36:16;;;;;;;11.82;3.88;;;23.10;47.00;;;;;;7369877;19;20121;-82
2022/08/08 06:38:50;;;;;;;11.13;4.30;;;23.30;46.80;;;;;;7369214;19;20708;-81
2022/08/08 06:41:20;;;;;;;8.85;3.90;;;23.20;46.60;;;;;;7376285;19;20468;-80
2022/08/08 06:44:16;;;;;;;8.77;4.25;;;23.20;46.60;;;;;;7381938;19;20036;-84
2022/08/08 06:46:47;;;;;;;7.68;4.07;;;23.30;46.60;;;;;;7380702;19;20028;-83
2022/08/08 06:49:16;;;;;;;;;;;23.30;46.90;;;;;;7403441;19;20014;-82
2022/08/08 06:51:47;;;;;;;13.15;3.95;;;23.20;47.10;;;;;;7374132;19;19911;-85
2022/08/08 06:54:16;;;;;;;15.63;4.35;;;23.30;47.00;;;;;;7373295;19;20018;-82
2022/08/08 06:56:58;;;;;;;12.40;4.32;;;23.40;46.70;;;;;;7372982;19;20019;-83
2022/08/08 06:59:26;;;;;;;8.35;3.97;;;23.50;46.60;;;;;;7369304;19;20015;-82
2022/08/08 07:02:15;;;;;;;9.00;3.80;;;23.60;46.30;;;;;;7369624;19;20023;-83
2022/08/08 07:04:54;;;;;;;11.13;3.72;;;23.60;46.20;;;;;;7369526;19;20043;-80
2022/08/08 07:07:39;;;;;;;20.80;4.50;;;23.70;46.10;;;;;;7387128;19;20035;-74
2022/08/08 07:10:09;;;;;;;9.60;4.68;;;23.70;46.80;;;;;;7365169;19;20014;-75
2022/08/08 07:12:42;;;;;;;8.67;3.63;;;23.80;46.10;;;;;;7365958;19;20082;-75
2022/08/08 07:15:13;;;;;;;14.75;4.85;;;23.90;46.10;;;;;;7367582;19;20258;-75
2022/08/08 07:17:48;;;;;;;8.07;4.15;;;23.90;45.60;;;;;;7363473;19;20526;-75
2022/08/08 07:20:21;;;;;;;12.45;4.25;;;23.90;45.60;;;;;;7367537;19;20086;-75
2022/08/08 07:23:07;;;;;;;11.32;4.22;;;23.90;45.60;;;;;;7363459;19;20003;-76
2022/08/08 07:25:41;;;;;;;14.70;4.90;;;23.90;45.60;;;;;;7366718;19;20806;-75
2022/08/08 07:28:12;;;;;;;13.23;4.18;;;23.90;45.60;;;;;;7386307;19;20019;-75
2022/08/08 07:30:41;;;;;;;9.38;3.78;;;23.80;45.60;;;;;;7365513;19;20395;-77
2022/08/08 07:33:11;;;;;;;8.13;3.83;;;23.90;45.90;;;;;;7366345;19;20023;-74
2022/08/08 07:35:40;;;;;;;10.18;4.18;;;23.90;45.80;;;;;;7365743;19;20501;-76
2022/08/08 07:38:12;;;;;;;11.90;4.40;;;24.00;45.60;;;;;;7364678;19;20021;-74
2022/08/08 07:40:41;;;;;;;11.43;4.20;;;23.90;45.70;;;;;;7364765;19;20418;-76
2022/08/08 07:43:12;;;;;;;9.40;4.18;;;23.80;45.70;;;;;;7389751;19;20026;-76
2022/08/08 07:45:44;;;;;;;11.10;4.43;;;23.90;45.60;;;;;;7371569;19;20423;-76
2022/08/08 07:48:12;;;;;;;10.48;4.00;;;24.00;45.50;;;;;;7372673;19;20018;-75
2022/08/08 07:50:45;;;;;;;15.10;4.20;;;24.10;45.20;;;;;;7372971;19;20458;-75
2022/08/08 07:53:29;;;;;;;14.27;3.90;;;24.20;45.30;;;;;;7371605;19;20015;-76
2022/08/08 07:56:03;;;;;;;15.05;4.35;;;24.20;45.10;;;;;;7371897;19;20422;-76
2022/08/08 07:58:39;;;;;;;10.18;3.60;;;24.30;45.00;;;;;;7371076;19;20058;-76
2022/08/08 08:01:09;;;;;;;9.60;4.07;;;24.40;44.60;;;;;;7392588;19;20025;-77
2022/08/08 08:03:46;;;;;;;8.20;3.63;;;24.50;43.90;;;;;;7372169;19;20022;-78
2022/08/08 08:06:15;;;;;;;7.25;3.85;;;24.50;43.90;;;;;;7371325;19;20014;-78
2022/08/08 08:08:50;;;;;;;8.32;3.50;;;24.60;44.00;;;;;;7384185;19;20071;-89
2022/08/08 08:11:23;;;;;;;8.05;3.20;;;24.60;44.20;;;;;;7383321;19;20021;-80
2022/08/08 08:13:58;;;;;;;8.20;3.10;;;24.40;44.20;;;;;;7373252;19;20097;-76
2022/08/08 08:16:30;;;;;;;10.98;3.60;;;24.50;44.20;;;;;;7393356;19;20018;-76
2022/08/08 08:19:00;;;;;;;10.13;3.50;;;24.50;43.50;;;;;;7370243;19;20014;-77
2022/08/08 08:21:32;;;;;;;12.50;3.95;;;24.30;43.90;;;;;;7370460;19;20474;-75
2022/08/08 08:24:03;;;;;;;8.65;3.55;;;24.40;43.70;;;;;;7370053;19;20014;-76
2022/08/08 08:26:31;;;;;;;;;;;24.50;43.80;;;;;;7368933;19;20025;-75
2022/08/08 08:29:01;;;;;;;10.77;3.42;;;24.70;43.60;;;;;;7372975;19;19918;-76
2022/08/08 08:31:30;;;;;;;14.43;3.08;;;24.70;43.20;;;;;;7375580;19;20460;-76
2022/08/08 08:33:59;;;;;;;11.32;3.08;;;24.60;43.10;;;;;;7393897;19;20078;-76
2022/08/08 08:36:28;;;;;;;14.02;3.25;;;24.70;43.10;;;;;;7368602;19;20086;-75
2022/08/08 08:38:59;;;;;;;9.32;3.05;;;24.50;43.10;;;;;;7371436;19;20074;-76
2022/08/08 08:41:32;;;;;;;10.95;3.15;;;24.60;42.80;;;;;;7371828;19;20029;-76
2022/08/08 08:44:01;;;;;;;8.95;2.97;;;24.40;42.90;;;;;;7371508;19;20130;-76
2022/08/08 08:46:31;;;;;;;6.88;2.78;;;24.40;43.20;;;;;;7371177;19;20180;-76
2022/08/08 08:49:02;;;;;;;5.93;2.78;;;24.40;43.00;;;;;;7390654;19;20014;-76
2022/08/08 08:51:31;;;;;;;10.15;2.35;;;24.40;42.90;;;;;;7368982;19;20122;-74
2022/08/08 08:54:03;;;;;;;10.90;2.95;;;24.10;43.10;;;;;;7371485;19;20018;-74
2022/08/08 08:56:36;;;;;;;11.02;2.80;;;24.30;44.20;;;;;;7369508;19;20021;-74
2022/08/08 08:59:06;;;;;;;5.40;2.55;;;24.50;43.20;;;;;;7371359;19;20031;-75
2022/08/08 09:01:39;;;;;;;11.55;3.00;;;24.70;43.00;;;;;;7370469;19;20020;-74
2022/08/08 09:04:11;;;;;;;3.80;2.45;;;24.70;42.70;;;;;;7392582;19;20044;-75
2022/08/08 09:06:41;;;;;;;3.85;2.25;;;24.90;42.90;;;;;;7370107;19;20018;-74
2022/08/08 09:09:15;;;;;;;8.25;3.17;;;25.00;42.50;;;;;;7370531;19;20112;-74
2022/08/08 09:11:48;;;;;;;9.57;2.50;;;25.00;42.10;;;;;;7372410;19;20014;-75
2022/08/08 09:14:22;;;;;;;11.23;2.72;;;24.90;42.10;;;;;;7368387;19;20018;-76
2022/08/08 09:16:51;;;;;;;4.47;2.50;;;25.10;42.30;;;;;;7370443;19;20035;-75
2022/08/08 09:19:21;;;;;;;14.45;3.00;;;25.10;41.30;;;;;;7390885;19;20086;-75
2022/08/08 09:21:51;;;;;;;9.70;3.05;;;24.60;41.80;;;;;;7369451;19;20026;-75
2022/08/08 09:24:21;;;;;;;8.27;2.33;;;24.70;42.20;;;;;;7368907;19;20018;-75
2022/08/08 09:27:00;;;;;;;11.13;2.70;;;24.80;42.50;;;;;;7370092;19;20018;-76
2022/08/08 09:29:32;;;;;;;5.63;2.72;;;25.00;42.50;;;;;;7367789;19;20352;-75
2022/08/08 09:32:06;;;;;;;7.55;2.47;;;24.90;41.70;;;;;;7371082;19;20103;-75
2022/08/08 09:34:37;;;;;;;6.22;2.60;;;25.10;41.70;;;;;;7369253;19;20018;-75
2022/08/08 09:37:08;;;;;;;11.70;2.58;;;25.30;41.50;;;;;;7389337;19;20022;-77
2022/08/08 09:39:44;;;;;;;16.80;5.60;;;25.30;41.60;;;;;;7367946;19;20017;-74
2022/08/08 09:42:17;;;;;;;10.07;2.70;;;25.00;40.80;;;;;;7366032;19;20694;-73
2022/08/08 09:44:58;;;;;;;7.00;2.58;;;25.10;41.20;;;;;;7371451;19;20033;-74
2022/08/08 09:47:29;;;;;;;4.57;2.03;;;25.20;41.30;;;;;;7368564;19;20045;-73
2022/08/08 09:50:00;;;;;;;7.28;2.50;;;25.10;41.10;;;;;;7368259;19;20616;-75
2022/08/08 09:52:34;;;;;;;4.53;2.33;;;25.20;41.50;;;;;;7385906;19;20864;-76
2022/08/08 09:55:03;;;;;;;5.82;2.75;;;25.30;40.60;;;;;;7391033;19;20810;-75
2022/08/08 09:57:37;;;;;;;8.55;2.40;;;25.40;40.60;;;;;;7367377;19;20018;-75
2022/08/08 10:00:09;;;;;;;4.68;2.13;;;25.40;40.80;;;;;;7364397;19;20033;-75
2022/08/08 10:02:40;;;;;;;7.15;2.42;;;25.50;40.60;;;;;;7368459;19;20022;-75
2022/08/08 10:05:12;;;;;;;6.43;2.40;;;25.60;40.40;;;;;;7367498;19;20035;-75
2022/08/08 10:07:48;;;;;;;6.75;2.60;;;25.70;39.90;;;;;;7368427;19;20421;-75
2022/08/08 10:10:16;;;;;;;5.90;2.30;;;25.40;39.80;;;;;;7389896;19;20025;-74
2022/08/08 10:12:48;;;;;;;3.72;2.00;;;25.20;39.70;;;;;;7367907;19;20025;-75
2022/08/08 10:15:17;;;;;;;5.95;2.33;;;25.40;40.30;;;;;;7367868;19;20077;-74
2022/08/08 10:17:47;;;;;;;7.40;2.53;;;25.40;40.00;;;;;;7368444;19;20441;-76
2022/08/08 10:20:16;;;;;;;7.68;2.55;;;25.70;39.90;;;;;;7367329;19;20017;-75
2022/08/08 10:22:54;;;;;;;11.88;2.30;;;25.90;40.00;;;;;;7367175;19;20028;-75
2022/08/08 10:25:23;;;;;;;6.50;2.13;;;26.00;39.50;;;;;;7389034;19;20024;-76
2022/08/08 10:27:56;;;;;;;7.07;2.20;;;26.10;39.50;;;;;;7367285;19;20415;-76
2022/08/08 10:30:26;;;;;;;8.43;2.22;;;26.20;38.80;;;;;;7367386;19;20032;-75
2022/08/08 10:32:56;;;;;;;7.85;2.35;;;26.30;38.90;;;;;;7367069;19;20090;-74
2022/08/08 10:35:27;;;;;;;7.95;2.13;;;26.40;38.60;;;;;;7364997;19;20884;-74
2022/08/08 10:37:58;;;;;;;6.40;2.28;;;26.50;38.80;;;;;;7368198;19;20106;-73
2022/08/08 10:40:29;;;;;;;10.30;2.40;;;26.40;38.70;;;;;;7386313;19;20081;-74
2022/08/08 10:43:02;;;;;;;13.45;2.10;;;26.60;38.40;;;;;;7367278;19;20014;-75
2022/08/08 10:45:32;;;;;;;7.25;2.35;;;26.60;38.00;;;;;;7366963;19;20110;-78
2022/08/08 10:48:02;;;;;;;5.90;1.80;;;26.70;37.50;;;;;;7367260;19;20019;-76
2022/08/08 10:50:35;;;;;;;3.58;2.05;;;26.80;37.60;;;;;;7365952;19;20015;-77
2022/08/08 10:53:05;;;;;;;6.97;2.60;;;26.80;37.70;;;;;;7366433;19;20019;-77
2022/08/08 10:55:36;;;;;;;5.07;2.40;;;26.70;37.10;;;;;;7364490;19;20089;-77
2022/08/08 10:58:09;;;;;;;6.53;2.70;;;26.70;37.30;;;;;;7389563;19;20073;-77
2022/08/08 11:00:44;;;;;;;6.28;3.17;;;26.80;37.60;;;;;;7368034;19;20022;-77
2022/08/08 11:03:14;;;;;;;4.25;1.95;;;26.90;37.60;;;;;;7367972;19;20022;-77
2022/08/08 11:05:50;;;;;;;5.63;2.13;;;27.00;36.80;;;;;;7368811;19;20126;-77
2022/08/08 11:08:25;;;;;;;5.85;1.90;;;26.90;36.40;;;;;;7369201;19;20078;-77
2022/08/08 11:11:03;;;;;;;5.28;2.22;;;27.00;36.10;;;;;;7369140;19;20052;-77
2022/08/08 11:13:40;;;;;;;3.92;2.00;;;27.10;36.20;;;;;;7368087;19;20091;-77
2022/08/08 11:16:11;;;;;;;5.65;2.47;;;27.20;36.00;;;;;;7388456;19;20022;-77
2022/08/08 11:18:41;;;;;;;8.18;2.60;;;27.30;36.10;;;;;;7373179;19;20042;-77
2022/08/08 11:21:10;;;;;;;9.25;2.20;;;27.30;36.30;;;;;;7373987;19;20030;-77
2022/08/08 11:23:42;;;;;;;5.18;2.20;;;27.40;35.70;;;;;;7376182;19;20014;-78
2022/08/08 11:26:19;;;;;;;3.75;2.00;;;27.40;35.70;;;;;;7375494;19;20014;-78
2022/08/08 11:28:52;;;;;;;4.60;1.95;;;27.40;35.50;;;;;;7375098;19;20022;-78
2022/08/08 11:31:24;;;;;;;5.43;2.08;;;27.40;35.30;;;;;;7393019;19;20015;-78
2022/08/08 11:33:58;;;;;;;4.15;2.15;;;27.40;35.30;;;;;;7375183;19;20021;-78
2022/08/08 11:36:27;;;;;;;5.55;1.92;;;27.30;35.40;;;;;;7375204;19;20324;-78
2022/08/08 11:38:58;;;;;;;6.93;1.90;;;27.20;35.60;;;;;;7373784;19;20014;-79
2022/08/08 11:41:28;;;;;;;4.57;1.85;;;27.30;35.20;;;;;;7373585;19;20023;-77
2022/08/08 11:43:59;;;;;;;19.35;2.40;;;27.30;35.10;;;;;;7369514;19;20103;-78
2022/08/08 11:46:30;;;;;;;3.92;2.10;;;27.50;35.20;;;;;;7394969;19;20015;-76
2022/08/08 11:48:59;;;;;;;7.47;1.92;;;27.60;35.50;;;;;;7372239;19;20019;-75
2022/08/08 11:51:28;;;;;;;5.43;2.00;;;27.60;35.20;;;;;;7370620;19;20019;-76
2022/08/08 11:53:57;;;;;;;4.88;2.28;;;27.70;34.60;;;;;;7371682;19;20014;-76
2022/08/08 11:56:26;;;;;;;4.80;1.98;;;27.60;34.40;;;;;;7370934;19;20078;-75
2022/08/08 11:58:55;;;;;;;4.63;2.40;;;27.80;34.30;;;;;;7373178;19;20011;-77
2022/08/08 12:01:35;;;;;;;3.78;2.03;;;27.70;34.00;;;;;;7394158;19;20337;-76
2022/08/08 12:04:05;;;;;;;5.60;2.08;;;27.80;34.00;;;;;;7374031;19;20044;-77
2022/08/08 12:06:34;;;;;;;7.28;2.00;;;27.80;33.40;;;;;;7374326;19;20018;-78
2022/08/08 12:09:12;;;;;;;5.47;1.90;;;27.80;33.30;;;;;;7374865;19;20466;-79
2022/08/08 12:11:43;;;;;;;6.50;2.10;;;27.80;33.80;;;;;;7375007;19;20035;-79
2022/08/08 12:14:12;;;;;;;4.78;1.98;;;27.90;33.40;;;;;;7370853;19;20107;-80
2022/08/08 12:16:54;;;;;;;8.02;2.25;;;28.00;33.30;;;;;;7370309;19;20022;-80
2022/08/08 12:19:24;;;;;;;6.20;1.98;;;28.00;32.60;;;;;;7394370;19;20029;-77
2022/08/08 12:21:53;;;;;;;4.18;1.70;;;28.00;31.90;;;;;;7367904;19;20078;-77
2022/08/08 12:24:24;;;;;;;7.20;2.72;;;27.90;32.80;;;;;;7366887;19;21004;-78
2022/08/08 12:26:55;;;;;;;11.43;2.50;;;28.10;32.90;;;;;;7374362;19;20028;-78
2022/08/08 12:29:29;;;;;;;6.70;3.45;;;28.00;32.50;;;;;;7371628;19;20387;-78
2022/08/08 12:32:09;;;;;;;5.15;2.03;;;28.10;32.90;;;;;;7373859;19;20031;-78
2022/08/08 12:34:43;;;;;;;5.38;1.67;;;28.20;33.10;;;;;;7374152;19;20085;-79
2022/08/08 12:37:20;;;;;;;2.28;1.60;;;28.40;32.30;;;;;;7384150;19;20114;-78
2022/08/08 12:39:49;;;;;;;6.60;1.80;;;28.40;30.10;;;;;;7369282;19;20473;-79
2022/08/08 12:42:18;;;;;;;4.63;1.70;;;28.30;30.60;;;;;;7370722;19;20022;-78
2022/08/08 12:44:48;;;;;;;3.00;1.55;;;28.30;31.00;;;;;;7371719;19;20093;-78
2022/08/08 12:47:34;;;;;;;5.18;1.83;;;28.40;31.50;;;;;;7373569;19;20399;-78
2022/08/08 12:50:03;;;;;;;3.75;1.98;;;28.50;31.70;;;;;;7370274;19;20018;-79
2022/08/08 12:52:38;;;;;;;3.38;1.80;;;28.60;32.00;;;;;;7374194;19;20094;-78
2022/08/08 12:55:09;;;;;;;2.40;1.80;;;28.70;31.60;;;;;;7393371;19;20014;-78
2022/08/08 12:57:38;;;;;;;2.50;1.48;;;28.80;30.80;;;;;;7370457;19;20185;-78
2022/08/08 13:00:09;;;;;;;6.03;1.75;;;28.80;31.10;;;;;;7370361;19;20087;-78
2022/08/08 13:02:44;;;;;;;4.00;1.98;;;28.80;30.60;;;;;;7368041;19;20064;-78
2022/08/08 13:05:23;;;;;;;5.55;1.80;;;28.90;30.40;;;;;;7370866;19;20036;-77
2022/08/08 13:07:52;;;;;;;7.45;1.80;;;28.90;30.60;;;;;;7367981;19;20804;-76
2022/08/08 13:10:21;;;;;;;3.38;1.48;;;29.10;30.60;;;;;;7392001;19;20089;-77
2022/08/08 13:12:53;;;;;;;3.13;1.73;;;29.10;30.40;;;;;;7369396;19;20022;-76
2022/08/08 13:15:22;;;;;;;2.10;1.23;;;29.20;30.00;;;;;;7371693;19;20025;-78
2022/08/08 13:17:53;;;;;;;2.97;1.67;;;29.30;30.20;;;;;;7370966;19;20086;-77
2022/08/08 13:20:22;;;;;;;5.90;2.15;;;29.40;30.00;;;;;;7369598;19;20311;-78
2022/08/08 13:22:51;;;;;;;3.63;1.80;;;29.40;29.80;;;;;;7369343;19;20443;-77
2022/08/08 13:25:22;;;;;;;4.72;1.70;;;29.50;30.20;;;;;;7389875;19;20019;-77
2022/08/08 13:27:54;;;;;;;7.70;1.70;;;29.60;29.90;;;;;;7368933;19;20031;-78
2022/08/08 13:30:26;;;;;;;4.85;1.83;;;29.60;29.40;;;;;;7370734;19;20275;-77
2022/08/08 13:33:02;;;;;;;2.83;1.70;;;29.40;29.10;;;;;;7371682;19;20102;-77
2022/08/08 13:35:31;;;;;;;8.65;1.88;;;29.40;29.20;;;;;;7373057;19;20046;-77